Time,TemperatureF,DewpointF,PressureIn,WindDirection,WindDirectionDegrees,WindSpeedMPH,WindSpeedGustMPH,Humidity,HourlyPrecipIn,Conditions,Clouds,dailyrainin,SoftwareType,DateUTC
2013-07-08 00:02:00,76.0,74.0,30.13,North,355,0.0,0.0,95,0.00,,,0.23,,2013-07-08 04:02:00,
2013-07-08 00:12:00,76.0,74.0,30.13,North,354,0.0,0.0,95,0.00,,,0.23,,2013-07-08 04:12:00,
2013-07-08 00:22:00,76.0,74.0,30.13,North,354,0.0,0.0,95,0.00,,,0.23,,2013-07-08 04:22:00,
2013-07-08 00:33:00,76.0,74.0,30.12,North,355,0.0,0.0,95,0.00,,,0.23,,2013-07-08 04:33:00,
2013-07-08 00:42:00,76.0,74.0,30.12,North,355,0.0,0.0,95,0.00,,,0.23,,2013-07-08 04:42:00,
2013-07-08 00:53:00,76.0,74.0,30.12,North,354,0.0,0.0,95,0.00,,,0.23,,2013-07-08 04:53:00,
2013-07-08 01:01:00,76.0,74.0,30.12,North,355,0.0,0.0,95,0.00,,,0.23,,2013-07-08 05:01:00,
2013-07-08 01:12:00,76.0,74.0,30.12,North,356,0.0,0.0,95,0.00,,,0.23,,2013-07-08 05:12:00,
2013-07-08 01:22:00,76.0,74.0,30.12,North,354,0.0,0.0,95,0.00,,,0.23,,2013-07-08 05:22:00,
2013-07-08 01:33:00,76.0,74.0,30.12,North,354,0.0,0.0,95,0.00,,,0.23,,2013-07-08 05:33:00,
2013-07-08 01:43:00,76.0,74.0,30.11,North,354,0.0,0.0,95,0.00,,,0.23,,2013-07-08 05:43:00,
2013-07-08 01:53:00,76.0,74.0,30.11,North,354,0.0,0.0,95,0.00,,,0.23,,2013-07-08 05:53:00,
2013-07-08 02:01:00,76.0,74.0,30.11,North,354,0.0,0.0,95,0.00,,,0.23,,2013-07-08 06:01:00,
2013-07-08 02:12:00,76.0,74.0,30.11,North,354,0.0,0.0,95,0.00,,,0.23,,2013-07-08 06:12:00,
2013-07-08 02:22:00,76.0,74.0,30.11,WNW,295,0.0,0.0,95,0.00,,,0.23,,2013-07-08 06:22:00,
2013-07-08 02:34:00,76.0,74.0,30.11,WNW,295,0.0,0.0,95,0.00,,,0.23,,2013-07-08 06:34:00,
2013-07-08 02:43:00,76.0,75.0,30.11,WNW,295,0.0,0.0,96,0.00,,,0.23,,2013-07-08 06:43:00,
2013-07-08 02:53:00,76.0,75.0,30.11,WNW,295,0.0,0.0,96,0.00,,,0.23,,2013-07-08 06:53:00,
2013-07-08 03:02:00,76.0,75.0,30.10,WNW,297,0.0,0.0,96,0.00,,,0.23,,2013-07-08 07:02:00,
2013-07-08 03:12:00,76.0,75.0,30.09,NE,39,0.0,0.0,96,0.00,,,0.23,,2013-07-08 07:12:00,
2013-07-08 03:22:00,76.0,74.0,30.09,NE,48,0.0,0.0,95,0.00,,,0.23,,2013-07-08 07:22:00,
2013-07-08 03:34:00,76.0,74.0,30.09,NE,49,0.0,0.0,95,0.00,,,0.23,,2013-07-08 07:34:00,
2013-07-08 03:44:00,76.0,74.0,30.09,NE,49,0.0,0.0,95,0.00,,,0.23,,2013-07-08 07:44:00,
2013-07-08 03:53:00,76.0,74.0,30.09,NE,48,0.0,0.0,95,0.00,,,0.23,,2013-07-08 07:53:00,
2013-07-08 04:02:00,76.0,74.0,30.09,NE,49,0.0,0.0,95,0.00,,,0.23,,2013-07-08 08:02:00,
2013-07-08 04:12:00,75.0,73.0,30.09,NE,49,0.0,0.0,95,0.00,,,0.23,,2013-07-08 08:12:00,
2013-07-08 04:22:00,75.0,73.0,30.09,NE,48,0.0,0.0,95,0.00,,,0.23,,2013-07-08 08:22:00,
2013-07-08 04:33:00,75.0,73.0,30.09,NE,48,0.0,0.0,95,0.00,,,0.23,,2013-07-08 08:33:00,
2013-07-08 04:42:00,75.0,74.0,30.09,NE,48,0.0,0.0,96,0.00,,,0.23,,2013-07-08 08:42:00,
2013-07-08 04:53:00,75.0,74.0,30.08,NE,48,0.0,0.0,96,0.00,,,0.23,,2013-07-08 08:53:00,
2013-07-08 05:02:00,75.0,74.0,30.08,NE,48,0.0,0.0,96,0.00,,,0.23,,2013-07-08 09:02:00,
2013-07-08 05:11:00,75.0,74.0,30.08,NE,48,0.0,0.0,96,0.00,,,0.23,,2013-07-08 09:11:00,
2013-07-08 05:22:00,75.0,74.0,30.08,NE,48,0.0,0.0,96,0.00,,,0.23,,2013-07-08 09:22:00,
2013-07-08 05:34:00,75.0,74.0,30.08,NE,48,0.0,0.0,96,0.00,,,0.23,,2013-07-08 09:34:00,
2013-07-08 05:43:00,75.0,74.0,30.07,NE,49,0.0,0.0,96,0.00,,,0.23,,2013-07-08 09:43:00,
2013-07-08 05:53:00,75.0,74.0,30.08,NE,48,0.0,0.0,96,0.00,,,0.23,,2013-07-08 09:53:00,
2013-07-08 06:02:00,75.0,74.0,30.08,NE,49,0.0,0.0,96,0.00,,,0.23,,2013-07-08 10:02:00,
2013-07-08 06:11:00,75.0,74.0,30.08,NE,48,0.0,0.0,96,0.00,,,0.23,,2013-07-08 10:11:00,
2013-07-08 06:22:00,75.0,74.0,30.09,NE,46,0.0,0.0,96,0.00,,,0.23,,2013-07-08 10:22:00,
2013-07-08 06:34:00,75.0,74.0,30.09,NE,48,0.0,0.0,96,0.00,,,0.23,,2013-07-08 10:34:00,
2013-07-08 06:53:00,75.0,74.0,30.10,NE,46,0.0,0.0,96,0.00,,,0.23,,2013-07-08 10:53:00,
2013-07-08 07:02:00,75.0,74.0,30.10,NE,46,0.0,0.0,96,0.00,,,0.23,,2013-07-08 11:02:00,
2013-07-08 07:11:00,75.0,74.0,30.10,NNW,345,0.0,0.0,96,0.00,,,0.23,,2013-07-08 11:11:00,
2013-07-08 07:23:00,76.0,75.0,30.10,East,98,0.0,0.0,96,0.00,,,0.23,,2013-07-08 11:23:00,
2013-07-08 07:33:00,76.0,75.0,30.10,East,79,0.0,0.0,96,0.00,,,0.23,,2013-07-08 11:33:00,
2013-07-08 07:43:00,76.0,75.0,30.10,ENE,78,1.0,1.0,96,0.00,,,0.23,,2013-07-08 11:43:00,
2013-07-08 07:53:00,77.0,76.0,30.11,East,80,0.0,0.0,96,0.00,,,0.23,,2013-07-08 11:53:00,
2013-07-08 08:01:00,77.0,76.0,30.10,East,91,0.0,0.0,96,0.00,,,0.23,,2013-07-08 12:01:00,
2013-07-08 08:11:00,77.0,75.0,30.10,ENE,78,1.0,1.0,95,0.00,,,0.23,,2013-07-08 12:11:00,
2013-07-08 08:22:00,78.0,76.0,30.11,ENE,77,2.0,2.0,95,0.00,,,0.23,,2013-07-08 12:22:00,
2013-07-08 08:34:00,78.0,76.0,30.11,NE,53,0.0,1.0,94,0.00,,,0.23,,2013-07-08 12:34:00,
2013-07-08 08:53:00,79.0,76.0,30.11,ENE,65,1.0,1.0,92,0.00,,,0.23,,2013-07-08 12:53:00,
2013-07-08 09:02:00,80.0,76.0,30.11,East,90,2.0,2.0,89,0.00,,,0.23,,2013-07-08 13:02:00,
2013-07-08 09:22:00,81.0,76.0,30.12,ESE,104,0.0,1.0,85,0.00,,,0.23,,2013-07-08 13:22:00,
2013-07-08 09:33:00,81.0,76.0,30.12,ENE,72,0.0,0.0,85,0.00,,,0.23,,2013-07-08 13:33:00,
2013-07-08 09:53:00,82.0,76.0,30.13,ENE,68,0.0,0.0,82,0.00,,,0.23,,2013-07-08 13:53:00,
2013-07-08 10:02:00,82.0,76.0,30.14,ENE,70,1.0,1.0,81,0.00,,,0.23,,2013-07-08 14:02:00,
2013-07-08 10:22:00,83.0,75.0,30.14,ESE,120,0.0,0.0,78,0.00,,,0.23,,2013-07-08 14:22:00,
2013-07-08 10:34:00,84.0,76.0,30.14,East,79,1.0,1.0,78,0.00,,,0.23,,2013-07-08 14:34:00,
2013-07-08 10:43:00,85.0,76.0,30.15,ENE,74,0.0,0.0,75,0.00,,,0.23,,2013-07-08 14:43:00,
2013-07-08 10:53:00,85.0,76.0,30.15,ENE,74,0.0,0.0,75,0.00,,,0.23,,2013-07-08 14:53:00,
2013-07-08 11:43:00,87.0,76.0,30.15,WSW,249,0.0,0.0,71,0.00,,,0.23,,2013-07-08 15:43:00,
2013-07-08 11:53:00,87.0,76.0,30.15,ENE,58,0.0,1.0,70,0.00,,,0.23,,2013-07-08 15:53:00,
2013-07-08 12:43:00,89.0,77.0,30.15,East,79,0.0,1.0,68,0.00,,,0.23,,2013-07-08 16:43:00,
2013-07-08 12:57:00,89.0,77.0,30.15,ENE,60,2.0,2.0,67,0.00,,,0.23,,2013-07-08 16:57:00,
2013-07-08 14:09:00,91.0,76.0,30.13,ENE,71,2.0,2.0,61,0.00,,,0.23,,2013-07-08 18:09:00,
2013-07-08 14:23:00,91.0,75.0,30.13,ENE,76,0.0,0.0,59,0.00,,,0.23,,2013-07-08 18:23:00,
2013-07-08 14:34:00,91.0,75.0,30.13,ENE,76,0.0,0.0,59,0.00,,,0.23,,2013-07-08 18:34:00,
2013-07-08 15:01:00,92.0,76.0,30.12,ENE,68,2.0,2.0,59,0.00,,,0.23,,2013-07-08 19:01:00,
2013-07-08 15:32:00,93.0,75.0,30.11,NE,47,2.0,2.0,56,0.00,,,0.23,,2013-07-08 19:32:00,
2013-07-08 15:52:00,93.0,74.0,30.10,SE,142,0.0,0.0,54,0.00,,,0.23,,2013-07-08 19:52:00,
2013-07-08 17:00:00,93.0,72.0,30.08,North,6,2.0,2.0,51,0.00,,,0.23,,2013-07-08 21:00:00,
2013-07-08 17:42:00,88.0,77.0,30.08,West,271,1.0,1.0,70,0.00,,,0.23,,2013-07-08 21:42:00,
2013-07-08 17:51:00,87.0,77.0,30.08,WSW,253,1.0,2.0,72,0.00,,,0.23,,2013-07-08 21:51:00,
2013-07-08 18:01:00,87.0,78.0,30.08,West,278,2.0,6.0,74,0.00,,,0.23,,2013-07-08 22:01:00,
2013-07-08 18:16:00,87.0,78.0,30.07,West,277,3.0,3.0,75,0.00,,,0.23,,2013-07-08 22:16:00,
2013-07-08 18:23:00,87.0,78.0,30.07,WSW,244,0.0,2.0,74,0.00,,,0.23,,2013-07-08 22:23:00,
2013-07-08 18:54:00,86.0,77.0,30.08,West,269,1.0,3.0,74,0.00,,,0.23,,2013-07-08 22:54:00,
2013-07-08 19:15:00,87.0,78.0,30.06,WSW,240,2.0,3.0,74,0.01,,,0.24,,2013-07-08 23:15:00,
2013-07-08 19:21:00,84.0,78.0,30.08,SW,227,0.0,0.0,83,0.03,,,0.26,,2013-07-08 23:21:00,
2013-07-08 19:53:00,82.0,77.0,30.09,WSW,257,0.0,0.0,85,0.03,,,0.26,,2013-07-08 23:53:00,
2013-07-08 20:31:00,80.0,75.0,30.10,NW,324,0.0,0.0,84,0.00,,,0.03,,2013-07-09 00:31:00,
2013-07-08 20:42:00,80.0,75.0,30.10,NW,324,0.0,0.0,84,0.00,,,0.03,,2013-07-09 00:42:00,
2013-07-08 21:00:00,79.0,74.0,30.11,North,1,1.0,1.0,85,0.00,,,0.03,,2013-07-09 01:00:00,
2013-07-08 21:14:00,78.0,73.0,30.11,North,3,0.0,0.0,84,0.00,,,0.03,,2013-07-09 01:14:00,
2013-07-08 21:33:00,78.0,73.0,30.12,North,4,0.0,0.0,86,0.00,,,0.03,,2013-07-09 01:33:00,
2013-07-08 22:10:00,77.0,73.0,30.12,North,3,0.0,0.0,87,0.00,,,0.03,,2013-07-09 02:10:00,
2013-07-08 23:01:00,78.0,74.0,30.14,North,4,0.0,0.0,89,0.00,,,0.03,,2013-07-09 03:01:00,
2013-07-08 23:14:00,78.0,74.0,30.14,North,4,0.0,0.0,89,0.00,,,0.03,,2013-07-09 03:14:00,
2013-07-08 23:23:00,78.0,74.0,30.15,North,5,0.0,0.0,89,0.00,,,0.03,,2013-07-09 03:23:00,